Time;durP1;ratioP1;P1;durP2;ratioP2;P2;SDS_P1;SDS_P2;PMS_P1;PMS_P2;Temp;Humidity;BMP_temperature;BMP_pressure;BME280_temperature;BME280_humidity;BME280_pressure;Samples;Min_cycle;Max_cycle;Signal;HPM_P1;HPM_P2
2024/04/13 00:02:20;;;;;;;1.10;1.10;;;;;;;14.43;81.85;97794.84;5267377;27;20007;-61
2024/04/13 00:04:47;;;;;;;1.30;1.30;;;;;;;14.43;81.94;97800.44;5266188;27;20050;-61
2024/04/13 00:07:14;;;;;;;1.20;1.20;;;;;;;14.57;81.47;97800.63;5268836;27;19999;-60
2024/04/13 00:09:41;;;;;;;1.10;1.10;;;;;;;14.58;80.84;97799.44;5265946;27;20462;-61
2024/04/13 00:12:08;;;;;;;1.25;1.25;;;;;;;14.63;80.60;97799.91;5265829;27;20017;-61
2024/04/13 00:14:35;;;;;;;1.20;1.20;;;;;;;14.56;81.13;97793.41;5265312;27;20449;-62
2024/04/13 00:17:02;;;;;;;1.08;1.08;;;;;;;14.06;81.60;97749.28;5267703;27;20081;-62
2024/04/13 00:19:29;;;;;;;1.20;1.20;;;;;;;13.89;82.13;97744.25;5266906;27;20357;-61
2024/04/13 00:22:00;;;;;;;1.15;1.15;;;;;;;13.60;82.28;97688.13;5265353;27;20007;-61
2024/04/13 00:24:27;;;;;;;1.10;1.10;;;;;;;14.25;82.95;97796.56;5265111;27;20010;-61
2024/04/13 00:26:54;;;;;;;1.13;1.13;;;;;;;14.26;81.93;97801.78;5267561;27;20007;-61
2024/04/13 00:29:22;;;;;;;1.00;1.00;;;;;;;14.11;81.80;97788.78;5233847;27;20019;-62
2024/04/13 00:31:49;;;;;;;1.05;1.05;;;;;;;14.17;82.41;97789.25;5267130;27;20447;-62
2024/04/13 00:34:16;;;;;;;1.17;1.17;;;;;;;14.18;82.28;97788.09;5267241;27;20006;-61
2024/04/13 00:36:42;;;;;;;1.10;1.10;;;;;;;14.14;83.14;97787.22;5267014;27;20038;-61
2024/04/13 00:39:11;;;;;;;1.10;1.10;;;;;;;13.76;83.89;97720.56;5267288;27;20137;-62
2024/04/13 00:41:39;;;;;;;1.15;1.15;;;;;;;14.02;85.14;97784.66;5267438;27;20006;-62
2024/04/13 00:44:06;;;;;;;1.10;1.10;;;;;;;13.86;84.54;97743.03;5268140;27;20006;-61
2024/04/13 00:46:33;;;;;;;1.10;1.10;;;;;;;14.14;83.47;97787.22;5265988;27;20022;-62
2024/04/13 00:49:10;;;;;;;1.10;1.10;;;;;;;14.06;84.11;97794.69;5267070;27;20010;-61
2024/04/13 00:51:41;;;;;;;1.10;1.10;;;;;;;13.95;84.73;97785.34;5266880;27;20006;-62
2024/04/13 00:54:08;;;;;;;1.20;1.20;;;;;;;13.87;85.49;97782.81;5267106;27;20006;-61
2024/04/13 00:56:35;;;;;;;1.10;1.10;;;;;;;13.44;86.47;97737.56;5266441;27;20818;-61
2024/04/13 00:59:03;;;;;;;1.10;1.10;;;;;;;13.10;86.17;97663.44;5266529;27;20025;-62
2024/04/13 01:01:30;;;;;;;1.10;1.10;;;;;;;13.68;86.85;97776.16;5265914;27;20021;-61
2024/04/13 01:03:57;;;;;;;1.10;1.10;;;;;;;13.69;86.70;97774.97;5266997;27;20365;-61
2024/04/13 01:06:24;;;;;;;1.00;1.00;;;;;;;13.77;86.08;97772.31;5266175;27;20363;-62
2024/04/13 01:08:51;;;;;;;1.10;1.10;;;;;;;13.82;85.37;97771.97;5266582;27;20022;-62
2024/04/13 01:11:18;;;;;;;1.17;1.17;;;;;;;13.82;85.74;97780.34;5266068;27;20017;-63
2024/04/13 01:13:45;;;;;;;1.10;1.10;;;;;;;13.80;85.73;97760.44;5266915;27;20006;-62
2024/04/13 01:16:14;;;;;;;1.13;1.13;;;;;;;13.74;85.65;97745.22;5267051;27;20043;-61
2024/04/13 01:18:41;;;;;;;1.20;1.20;;;;;;;13.96;85.19;97763.88;5267229;27;20600;-62
2024/04/13 01:21:09;;;;;;;1.00;1.00;;;;;;;13.55;85.35;97710.72;5231161;27;20014;-62
2024/04/13 01:23:41;;;;;;;1.10;1.10;;;;;;;13.96;84.88;97764.66;5233012;27;20018;-61
2024/04/13 01:26:09;;;;;;;1.10;1.10;;;;;;;14.08;84.82;97763.66;5282329;27;20091;-61
2024/04/13 01:28:36;;;;;;;1.10;1.10;;;;;;;14.05;84.93;97761.63;5266446;27;20370;-61
2024/04/13 01:31:03;;;;;;;1.10;1.10;;;;;;;14.12;84.92;97761.72;5264094;27;20013;-62
2024/04/13 01:33:30;;;;;;;1.10;1.10;;;;;;;14.14;84.50;97753.78;5266795;27;20020;-62
2024/04/13 01:36:00;;;;;;;1.10;1.10;;;;;;;14.02;85.44;97751.22;5266183;27;20323;-61
2024/04/13 01:38:28;;;;;;;1.10;1.10;;;;;;;13.78;85.15;97704.31;5266561;27;20014;-61
2024/04/13 01:40:54;;;;;;;1.00;1.00;;;;;;;14.13;84.42;97757.75;5265272;27;20350;-61
2024/04/13 01:43:21;;;;;;;1.20;1.20;;;;;;;14.20;83.85;97752.28;5266106;27;20017;-61
2024/04/13 01:45:50;;;;;;;1.10;1.10;;;;;;;13.83;83.43;97706.78;5263599;27;20017;-63
2024/04/13 01:48:19;;;;;;;1.10;1.10;;;;;;;14.22;82.71;97756.31;5265885;27;20003;-62
2024/04/13 01:50:47;;;;;;;1.10;1.10;;;;;;;14.23;82.80;97757.09;5256400;27;20006;-61
2024/04/13 01:53:14;;;;;;;1.10;1.10;;;;;;;14.15;83.16;97756.19;5267679;27;20006;-62
2024/04/13 01:55:41;;;;;;;1.20;1.20;;;;;;;13.98;82.45;97701.03;5269105;27;20010;-63
2024/04/13 01:58:08;;;;;;;1.10;1.10;;;;;;;14.23;82.95;97748.72;5270146;27;20016;-62
2024/04/13 02:00:36;;;;;;;1.25;1.25;;;;;;;14.02;83.70;97729.72;5270099;27;20010;-62
2024/04/13 02:03:05;;;;;;;1.10;1.10;;;;;;;14.14;84.29;97748.22;5269838;27;20006;-62
2024/04/13 02:05:36;;;;;;;1.13;1.13;;;;;;;13.96;84.83;97758.31;5267646;27;20367;-62
2024/04/13 02:08:03;;;;;;;1.10;1.10;;;;;;;13.58;85.02;97709.97;5269483;27;20368;-61
2024/04/13 02:10:31;;;;;;;1.20;1.20;;;;;;;13.68;85.05;97708.53;5268771;27;20014;-62
2024/04/13 02:12:58;;;;;;;1.20;1.20;;;;;;;14.06;84.71;97761.25;5267543;27;20073;-62
2024/04/13 02:15:25;;;;;;;1.02;1.02;;;;;;;14.08;84.88;97750.53;5269118;27;20470;-63
2024/04/13 02:17:51;;;;;;;1.10;1.10;;;;;;;14.08;84.57;97760.88;5268932;27;20038;-62
2024/04/13 02:20:19;;;;;;;1.10;1.10;;;;;;;13.93;84.99;97759.84;5268548;27;20053;-63
2024/04/13 02:22:45;;;;;;;0.93;0.93;;;;;;;13.10;87.17;97749.69;5264871;26;20016;-62
2024/04/13 02:25:14;;;;;;;1.05;1.05;;;;;;;13.07;86.20;97688.44;5303090;26;20006;-63
2024/04/13 02:27:41;;;;;;;1.00;1.00;;;;;;;13.72;86.07;97748.34;5301261;27;20001;-62
2024/04/13 02:30:09;;;;;;;1.00;1.00;;;;;;;13.48;86.42;97691.13;5302743;27;20061;-63
2024/04/13 02:32:37;;;;;;;1.10;1.10;;;;;;;14.08;85.53;97738.56;5302052;27;20278;-62
2024/04/13 02:35:07;;;;;;;1.10;1.10;;;;;;;14.24;84.78;97772.66;5302800;26;20013;-62
2024/04/13 02:37:34;;;;;;;1.00;1.00;;;;;;;14.17;84.02;97714.03;5303106;27;20014;-61
2024/04/13 02:40:07;;;;;;;1.10;1.10;;;;;;;14.33;84.15;97743.34;5301725;27;20009;-62
2024/04/13 02:42:38;;;;;;;1.10;1.10;;;;;;;14.35;83.75;97731.81;5303747;26;20011;-62
2024/04/13 02:45:05;;;;;;;1.10;1.10;;;;;;;13.80;83.31;97732.59;5303103;27;20092;-62
2024/04/13 02:47:32;;;;;;;1.10;1.10;;;;;;;13.81;84.94;97750.91;5303309;27;20009;-61
2024/04/13 02:49:59;;;;;;;1.10;1.10;;;;;;;14.00;83.80;97750.78;5302981;27;20009;-61
2024/04/13 02:52:28;;;;;;;1.10;1.10;;;;;;;13.85;83.84;97729.50;5302801;27;20006;-61
2024/04/13 02:54:55;;;;;;;0.90;0.90;;;;;;;13.39;82.91;97668.31;5302452;27;20072;-62
2024/04/13 02:57:23;;;;;;;1.15;1.15;;;;;;;13.94;83.34;97755.88;5302598;27;20015;-62
2024/04/13 02:59:51;;;;;;;1.10;1.10;;;;;;;13.68;82.65;97691.81;5302663;27;20029;-61
2024/04/13 03:02:19;;;;;;;1.10;1.10;;;;;;;13.42;86.02;97766.97;5301845;27;20005;-62
2024/04/13 03:04:50;;;;;;;1.00;1.00;;;;;;;13.08;87.57;97774.28;5301355;27;20037;-62
2024/04/13 03:07:17;;;;;;;0.93;0.93;;;;;;;12.66;90.33;97794.84;5301996;27;20005;-61
2024/04/13 03:09:45;;;;;;;1.02;1.02;;;;;;;12.31;94.65;97777.41;5302180;27;20180;-62
2024/04/13 03:12:13;;;;;;;1.00;1.00;;;;;;;12.71;92.71;97775.91;5300684;27;20380;-61
2024/04/13 03:14:41;;;;;;;1.10;1.10;;;;;;;12.64;91.30;97728.50;5301746;26;20438;-62
2024/04/13 03:17:09;;;;;;;1.10;1.10;;;;;;;12.34;90.53;97655.25;5302846;27;20033;-62
2024/04/13 03:19:37;;;;;;;1.00;1.00;;;;;;;13.22;90.13;97774.56;5302648;27;20012;-61
2024/04/13 03:22:03;;;;;;;1.10;1.10;;;;;;;12.96;89.21;97707.66;5300933;27;20048;-62
2024/04/13 03:24:33;;;;;;;1.02;1.02;;;;;;;12.88;88.96;97705.94;5303322;26;20011;-63
2024/04/13 03:27:02;;;;;;;1.00;1.00;;;;;;;13.34;88.84;97771.59;5300615;27;20006;-62
2024/04/13 03:29:29;;;;;;;1.10;1.10;;;;;;;13.41;88.25;97752.25;5302097;26;20083;-61
2024/04/13 03:31:56;;;;;;;1.10;1.10;;;;;;;13.47;88.50;97753.53;5300025;27;20037;-60
2024/04/13 03:34:23;;;;;;;1.00;1.00;;;;;;;13.41;89.53;97748.66;5300288;27;20048;-62
2024/04/13 03:36:50;;;;;;;1.10;1.10;;;;;;;13.51;89.00;97743.25;5301749;26;20006;-62
2024/04/13 03:39:18;;;;;;;1.00;1.00;;;;;;;12.91;91.63;97702.44;5300702;27;20012;-62
2024/04/13 03:41:45;;;;;;;1.10;1.10;;;;;;;13.16;94.29;97775.22;5287004;26;20025;-62
2024/04/13 03:44:12;;;;;;;1.10;1.10;;;;;;;13.26;93.32;97780.19;5300654;27;20018;-62
2024/04/13 03:46:39;;;;;;;1.00;1.00;;;;;;;13.17;94.66;97777.63;5301321;27;20020;-61
2024/04/13 03:49:09;;;;;;;1.10;1.10;;;;;;;13.09;92.97;97706.34;5302390;26;20070;-61
2024/04/13 03:51:36;;;;;;;1.10;1.10;;;;;;;13.28;91.15;97689.59;5301044;26;20021;-62
2024/04/13 03:54:03;;;;;;;1.10;1.10;;;;;;;13.81;90.39;97767.59;5300957;26;20010;-61
2024/04/13 03:56:32;;;;;;;1.17;1.17;;;;;;;14.05;88.58;97768.00;5299493;27;20097;-60
2024/04/13 03:58:59;;;;;;;1.10;1.10;;;;;;;14.05;88.37;97769.97;5301878;26;20006;-61
2024/04/13 04:01:26;;;;;;;1.13;1.13;;;;;;;14.10;88.29;97764.09;5302712;26;20017;-62
2024/04/13 04:03:53;;;;;;;1.10;1.10;;;;;;;14.30;87.40;97757.25;5302806;26;20029;-62
2024/04/13 04:06:21;;;;;;;1.10;1.10;;;;;;;14.49;86.40;97759.88;5300315;27;20013;-61
2024/04/13 04:08:48;;;;;;;1.20;1.20;;;;;;;14.67;85.18;97766.47;5301441;26;20429;-62
2024/04/13 04:11:15;;;;;;;1.20;1.20;;;;;;;14.80;84.55;97760.28;5301353;26;20575;-61
2024/04/13 04:13:41;;;;;;;1.10;1.10;;;;;;;14.50;83.66;97695.38;5301699;26;20001;-61
2024/04/13 04:16:08;;;;;;;1.08;1.08;;;;;;;14.59;83.75;97725.78;5301127;26;20021;-62
2024/04/13 04:18:35;;;;;;;1.30;1.30;;;;;;;14.73;84.18;97735.09;5299389;27;20021;-63
2024/04/13 04:21:03;;;;;;;1.20;1.20;;;;;;;15.00;83.98;97764.50;5298918;27;20006;-62
2024/04/13 04:23:30;;;;;;;1.20;1.20;;;;;;;15.06;83.69;97781.72;5301471;26;20037;-61
2024/04/13 04:25:56;;;;;;;1.10;1.10;;;;;;;14.78;84.89;97781.34;5301197;26;20977;-62
2024/04/13 04:28:23;;;;;;;1.23;1.23;;;;;;;14.34;84.83;97685.59;5301219;26;20373;-61
2024/04/13 04:30:50;;;;;;;1.40;1.40;;;;;;;14.83;84.94;97781.03;5300716;26;20016;-61
2024/04/13 04:33:17;;;;;;;1.30;1.30;;;;;;;14.37;83.90;97704.38;5300838;26;20001;-63
2024/04/13 04:35:44;;;;;;;1.20;1.20;;;;;;;14.53;85.50;97783.03;5299197;27;20009;-62
2024/04/13 04:38:12;;;;;;;1.10;1.10;;;;;;;14.54;85.28;97787.44;5301133;27;20553;-61
2024/04/13 04:40:39;;;;;;;1.10;1.10;;;;;;;14.71;84.71;97784.06;5302393;26;20013;-61
2024/04/13 04:43:06;;;;;;;1.10;1.10;;;;;;;14.79;83.56;97777.41;5301273;26;20002;-61
2024/04/13 04:45:34;;;;;;;1.30;1.30;;;;;;;14.83;82.36;97779.06;5299965;27;20033;-61
2024/04/13 04:48:01;;;;;;;1.20;1.20;;;;;;;14.19;83.92;97706.91;5300682;26;20482;-61
2024/04/13 04:50:28;;;;;;;1.20;1.20;;;;;;;14.65;84.35;97752.91;5300576;26;20037;-61
2024/04/13 04:52:55;;;;;;;1.15;1.15;;;;;;;15.12;83.14;97778.22;5300375;26;20005;-61
2024/04/13 04:55:22;;;;;;;1.30;1.30;;;;;;;15.09;80.96;97769.78;5300483;26;20046;-61
2024/04/13 04:57:49;;;;;;;1.30;1.30;;;;;;;14.66;83.48;97748.16;5265523;27;20034;-63
2024/04/13 05:00:16;;;;;;;1.10;1.10;;;;;;;15.23;82.19;97778.31;5289253;27;20016;-60
2024/04/13 05:02:43;;;;;;;1.40;1.40;;;;;;;15.41;80.72;97779.34;5300017;26;20441;-61
2024/04/13 05:05:10;;;;;;;1.35;1.35;;;;;;;15.38;79.24;97740.19;5300174;27;20009;-62
2024/04/13 05:07:36;;;;;;;1.30;1.30;;;;;;;15.71;78.56;97782.78;5300651;26;19998;-63
2024/04/13 05:10:04;;;;;;;1.20;1.20;;;;;;;15.85;78.73;97788.53;5300601;26;20002;-62
2024/04/13 05:12:31;;;;;;;1.33;1.33;;;;;;;16.14;77.08;97781.94;5299415;27;19997;-62
2024/04/13 05:14:58;;;;;;;1.50;1.50;;;;;;;16.39;75.96;97776.53;5300583;26;20006;-62
2024/04/13 05:17:25;;;;;;;1.50;1.50;;;;;;;16.50;75.48;97789.38;5301463;26;20038;-62
2024/04/13 05:19:52;;;;;;;1.40;1.40;;;;;;;16.84;73.82;97777.97;5299901;27;20020;-62
2024/04/13 05:22:19;;;;;;;1.60;1.60;;;;;;;16.85;73.63;97734.81;5302204;26;20002;-62
2024/04/13 05:24:46;;;;;;;1.80;1.80;;;;;;;17.16;71.49;97739.69;5298718;27;20036;-62
2024/04/13 05:27:12;;;;;;;1.40;1.40;;;;;;;17.35;71.07;97764.53;5299621;26;20024;-63
2024/04/13 05:29:39;;;;;;;1.80;1.80;;;;;;;17.14;69.83;97714.09;5300045;26;20021;-63
2024/04/13 05:32:07;;;;;;;1.70;1.70;;;;;;;17.54;69.94;97767.00;5300703;26;20012;-62
2024/04/13 05:34:34;;;;;;;1.80;1.80;;;;;;;17.57;68.99;97747.41;5298266;27;20010;-62
2024/04/13 05:37:01;;;;;;;1.73;1.73;;;;;;;17.27;68.72;97690.13;5300862;26;20010;-62
2024/04/13 05:39:29;;;;;;;1.42;1.42;;;;;;;17.72;68.64;97762.22;5300063;26;20575;-61
2024/04/13 05:41:56;;;;;;;1.80;1.80;;;;;;;17.81;68.60;97771.03;5300458;26;20057;-61
2024/04/13 05:44:23;;;;;;;1.73;1.73;;;;;;;17.79;67.45;97740.59;5300302;26;20009;-61
2024/04/13 05:46:50;;;;;;;1.60;1.60;;;;;;;17.76;67.47;97715.38;5276493;27;20002;-64
2024/04/13 05:49:18;;;;;;;1.80;1.80;;;;;;;18.13;67.38;97749.38;5293906;27;20016;-71
2024/04/13 05:51:45;;;;;;;1.60;1.60;;;;;;;18.18;66.08;97701.28;5283500;27;20775;-70
2024/04/13 05:54:12;;;;;;;1.90;1.90;;;;;;;18.83;65.11;97760.47;5299285;27;20089;-65
2024/04/13 05:56:40;;;;;;;1.90;1.90;;;;;;;18.86;63.99;97765.25;5298030;27;20037;-69
2024/04/13 05:59:07;;;;;;;1.80;1.80;;;;;;;18.17;64.42;97670.84;5299386;27;20006;-66
2024/04/13 06:01:34;;;;;;;1.98;1.98;;;;;;;18.81;64.49;97756.47;5283732;27;20086;-64
2024/04/13 06:04:01;;;;;;;2.00;2.00;;;;;;;19.02;64.46;97757.16;5266517;27;20630;-65
2024/04/13 06:06:28;;;;;;;1.90;1.90;;;;;;;19.42;62.99;97759.41;5282255;27;20001;-65
2024/04/13 06:08:56;;;;;;;2.10;2.10;;;;;;;19.32;62.56;97692.81;5292112;27;20017;-67
2024/04/13 06:11:22;;;;;;;1.77;1.77;;;;;;;18.78;61.52;97606.47;5291662;27;20012;-71
2024/04/13 06:13:49;;;;;;;2.08;2.08;;;;;;;19.70;61.63;97746.34;5279619;27;20492;-66
2024/04/13 06:16:16;;;;;;;2.03;2.03;;;;;;;19.87;61.11;97751.03;5288305;27;20002;-61
2024/04/13 06:18:43;;;;;;;2.03;2.03;;;;;;;19.44;61.40;97683.09;5291929;26;20005;-68
2024/04/13 06:21:11;;;;;;;1.90;1.90;;;;;;;19.51;61.33;97652.94;5279496;27;20013;-68
2024/04/13 06:23:38;;;;;;;2.08;2.08;;;;;;;20.31;60.46;97742.63;5312910;26;20006;-62
2024/04/13 06:26:05;;;;;;;2.30;2.30;;;;;;;20.28;60.02;97754.72;5286500;27;20005;-67
2024/04/13 06:28:32;;;;;;;1.90;1.90;;;;;;;20.38;59.50;97765.06;5294696;27;20605;-62
2024/04/13 06:30:59;;;;;;;2.05;2.05;;;;;;;20.31;60.42;97739.81;5295685;26;19998;-65
2024/04/13 06:33:26;;;;;;;2.20;2.20;;;;;;;20.43;59.78;97739.28;5291507;27;20041;-62
2024/04/13 06:35:54;;;;;;;2.17;2.17;;;;;;;20.51;59.55;97695.75;5295139;27;20017;-64
2024/04/13 06:38:26;;;;;;;2.08;2.08;;;;;;;21.02;58.16;97746.25;5280246;26;20084;-61
2024/04/13 06:40:54;;;;;;;2.03;2.03;;;;;;;20.17;60.88;97754.03;5284093;27;20005;-62
2024/04/13 06:43:21;;;;;;;1.90;1.90;;;;;;;20.12;60.83;97751.63;5266518;27;20050;-63
2024/04/13 06:45:49;;;;;;;2.03;2.03;;;;;;;19.28;60.36;97545.94;5290779;27;20014;-68
2024/04/13 06:48:16;;;;;;;2.10;2.10;;;;;;;20.73;59.25;97748.59;5299230;27;20563;-63
2024/04/13 06:50:46;;;;;;;2.10;2.10;;;;;;;20.12;58.99;97644.72;5300843;27;20597;-65
2024/04/13 06:53:13;;;;;;;2.10;2.10;;;;;;;20.85;58.53;97750.06;5299355;27;20017;-64
2024/04/13 06:55:39;;;;;;;1.90;1.90;;;;;;;20.97;58.96;97743.91;5299519;26;20017;-62
2024/04/13 06:58:06;;;;;;;2.00;2.00;;;;;;;21.30;57.91;97748.69;5300698;26;20012;-63
2024/04/13 07:00:34;;;;;;;1.83;1.83;;;;;;;21.44;57.78;97754.13;5289172;27;20507;-63
2024/04/13 07:03:01;;;;;;;2.00;2.00;;;;;;;21.63;57.80;97750.63;5321649;26;20005;-66
2024/04/13 07:05:28;;;;;;;2.28;2.28;;;;;;;20.60;57.09;97634.09;5301594;27;20016;-63
2024/04/13 07:07:55;;;;;;;2.20;2.20;;;;;;;21.60;56.27;97728.94;5301769;26;20041;-68
2024/04/13 07:10:22;;;;;;;2.50;2.40;;;;;;;21.90;56.35;97748.63;5293101;27;20007;-63
2024/04/13 07:12:49;;;;;;;2.13;2.13;;;;;;;21.56;54.99;97687.91;5265775;27;20360;-64
2024/04/13 07:15:16;;;;;;;2.33;2.30;;;;;;;21.79;54.17;97733.91;5275572;27;20374;-63
2024/04/13 07:17:43;;;;;;;2.75;2.65;;;;;;;22.33;53.88;97749.50;5286568;26;20009;-63
2024/04/13 07:20:13;;;;;;;2.60;2.50;;;;;;;22.64;53.76;97736.03;5305439;26;20064;-63
2024/04/13 07:22:40;;;;;;;2.75;2.65;;;;;;;22.55;52.41;97754.75;5297785;26;20006;-65
2024/04/13 07:25:07;;;;;;;2.55;2.45;;;;;;;22.22;53.30;97743.22;5293030;27;20038;-64
2024/04/13 07:27:34;;;;;;;2.17;2.17;;;;;;;22.30;52.60;97699.53;5276134;26;20017;-60
2024/04/13 07:30:01;;;;;;;2.20;2.20;;;;;;;22.57;52.71;97741.81;5290299;26;20475;-61
2024/04/13 07:32:28;;;;;;;2.40;2.30;;;;;;;22.70;52.56;97728.63;5287731;27;20603;-64
2024/04/13 07:34:55;;;;;;;2.85;2.75;;;;;;;22.88;52.52;97733.94;5289605;27;20040;-69
2024/04/13 07:37:22;;;;;;;2.60;2.50;;;;;;;22.94;52.09;97720.88;5282783;26;20002;-73
2024/04/13 07:39:49;;;;;;;2.58;2.47;;;;;;;23.16;51.73;97716.38;5275218;26;20009;-64
2024/04/13 07:42:16;;;;;;;2.53;2.42;;;;;;;23.09;51.14;97708.06;5277992;27;20495;-65
2024/04/13 07:44:43;;;;;;;3.03;2.92;;;;;;;23.26;50.64;97699.22;5291341;27;20384;-66
2024/04/13 07:47:09;;;;;;;3.20;3.10;;;;;;;23.00;50.47;97649.28;5292334;26;20331;-62
2024/04/13 07:49:36;;;;;;;2.97;2.88;;;;;;;23.29;50.47;97680.56;5295530;27;20046;-62
2024/04/13 07:52:04;;;;;;;2.78;2.67;;;;;;;23.32;51.04;97696.66;5285909;26;20010;-64
2024/04/13 07:54:32;;;;;;;2.83;2.72;;;;;;;23.40;50.28;97661.31;5278567;27;21139;-61
2024/04/13 07:57:00;;;;;;;3.10;3.00;;;;;;;23.31;50.22;97635.69;5275170;26;20007;-62
2024/04/13 07:59:27;;;;;;;2.83;2.72;;;;;;;23.78;49.66;97673.72;5293381;27;20002;-64
2024/04/13 08:01:54;;;;;;;3.05;2.95;;;;;;;24.14;48.41;97708.41;5300023;26;20079;-62
2024/04/13 08:04:21;;;;;;;3.25;3.15;;;;;;;23.73;48.94;97632.63;5299046;27;20028;-64
2024/04/13 08:06:48;;;;;;;3.40;3.30;;;;;;;24.52;47.67;97705.78;5293749;26;20083;-60
2024/04/13 08:09:15;;;;;;;3.20;3.10;;;;;;;23.95;48.11;97635.69;5299120;26;20022;-62
2024/04/13 08:11:42;;;;;;;3.15;3.05;;;;;;;23.89;49.19;97660.91;5290833;27;20014;-66
2024/04/13 08:14:09;;;;;;;3.13;3.03;;;;;;;23.51;49.62;97676.81;5286181;27;20066;-63
2024/04/13 08:16:39;;;;;;;2.97;2.88;;;;;;;23.40;49.61;97644.34;5298640;26;20487;-62
2024/04/13 08:19:06;;;;;;;2.97;2.88;;;;;;;23.63;48.97;97633.66;5285887;27;20018;-62
2024/04/13 08:21:34;;;;;;;2.92;2.83;;;;;;;24.16;48.53;97688.94;5299553;27;20033;-61
2024/04/13 08:24:01;;;;;;;3.08;2.97;;;;;;;23.44;50.17;97690.34;5285023;26;20010;-69
2024/04/13 08:26:28;;;;;;;3.10;3.00;;;;;;;24.02;49.72;97688.53;5297828;27;19998;-60
2024/04/13 08:28:55;;;;;;;3.20;3.10;;;;;;;24.24;48.89;97764.00;5291123;26;20002;-70
2024/04/13 08:31:22;;;;;;;3.05;2.95;;;;;;;24.44;47.71;97631.53;5297637;26;20017;-63
2024/04/13 08:33:50;;;;;;;3.17;3.08;;;;;;;24.32;48.18;97668.31;5292924;27;20353;-62
2024/04/13 08:36:17;;;;;;;2.72;2.63;;;;;;;23.22;49.90;97596.69;5271051;27;20034;-64
2024/04/13 08:38:44;;;;;;;3.00;2.90;;;;;;;23.72;49.99;97681.16;5279324;27;20018;-60
2024/04/13 08:41:34;;;;;;;2.85;2.75;;;;;;;23.72;49.06;97590.63;5286865;27;20024;-65
2024/04/13 08:44:01;;;;;;;3.05;2.95;;;;;;;24.08;48.87;97599.78;5279546;27;20016;-65
2024/04/13 08:46:31;;;;;;;3.10;3.00;;;;;;;24.73;48.54;97659.88;5296726;26;20009;-63
2024/04/13 08:49:00;;;;;;;2.95;2.85;;;;;;;24.84;47.87;97655.50;5284392;27;20512;-62
2024/04/13 08:51:29;;;;;;;2.55;2.45;;;;;;;24.14;48.34;97595.16;5295493;27;20010;-67
2024/04/13 08:53:57;;;;;;;2.90;2.80;;;;;;;24.14;47.75;97654.63;5265568;27;20026;-62
2024/04/13 08:56:26;;;;;;;2.80;2.70;;;;;;;24.46;46.95;97648.88;5279541;27;20046;-60
2024/04/13 08:58:55;;;;;;;3.05;2.95;;;;;;;24.34;47.90;97646.81;5289899;27;20093;-68
2024/04/13 09:01:25;;;;;;;3.10;3.00;;;;;;;24.61;47.22;97647.22;5295515;26;20020;-64
2024/04/13 09:03:53;;;;;;;3.10;3.00;;;;;;;25.11;45.57;97641.72;5291016;27;20091;-61
2024/04/13 09:06:21;;;;;;;3.17;3.08;;;;;;;24.25;46.63;97638.13;5295392;27;20010;-63
2024/04/13 09:08:49;;;;;;;3.45;3.35;;;;;;;24.09;47.25;97553.22;5299130;27;20041;-62
2024/04/13 09:11:17;;;;;;;2.90;2.80;;;;;;;24.74;45.40;97584.94;5286720;26;20053;-61
2024/04/13 09:13:45;;;;;;;2.92;2.83;;;;;;;25.23;44.80;97623.09;5281732;27;20457;-63
2024/04/13 09:16:13;;;;;;;3.40;3.30;;;;;;;25.18;43.88;97630.13;5276885;27;20019;-64
2024/04/13 09:18:41;;;;;;;3.40;3.30;;;;;;;25.27;43.80;97570.72;5271670;27;20035;-63
2024/04/13 09:21:08;;;;;;;3.50;3.40;;;;;;;26.13;42.50;97623.41;5289383;27;20009;-69
2024/04/13 09:23:36;;;;;;;3.28;3.17;;;;;;;26.28;41.66;97625.28;5297280;27;20472;-63
2024/04/13 09:26:04;;;;;;;3.55;3.45;;;;;;;26.51;41.26;97606.97;5296654;26;20024;-67
2024/04/13 09:28:41;;;;;;;3.33;3.22;;;;;;;26.15;40.59;97518.63;5295369;27;20560;-68
2024/04/13 09:31:10;;;;;;;3.67;3.58;;;;;;;26.77;39.86;97591.41;5295925;26;20021;-66
2024/04/13 09:33:39;;;;;;;3.35;3.25;;;;;;;26.60;40.39;97575.78;5290825;27;20548;-63
2024/04/13 09:36:08;;;;;;;3.63;3.53;;;;;;;26.95;39.67;97608.59;5289788;27;19999;-65
2024/04/13 09:38:35;;;;;;;3.78;3.67;;;;;;;26.87;39.99;97584.53;5293997;27;20002;-63
2024/04/13 09:41:02;;;;;;;3.83;3.72;;;;;;;27.03;39.77;97587.09;5292240;26;20014;-62
2024/04/13 09:43:30;;;;;;;3.83;3.72;;;;;;;26.90;40.14;97538.09;5285821;27;20042;-63
2024/04/13 09:45:58;;;;;;;3.58;3.47;;;;;;;27.78;39.13;97597.88;5284907;27;20155;-63
2024/04/13 09:48:24;;;;;;;4.30;4.20;;;;;;;27.37;39.14;97518.69;5295858;27;20005;-62
2024/04/13 09:50:52;;;;;;;3.95;3.85;;;;;;;27.15;39.42;97543.56;5290895;27;20002;-62
2024/04/13 09:53:19;;;;;;;3.88;3.78;;;;;;;27.65;39.42;97582.97;5299913;26;20041;-62
2024/04/13 09:55:46;;;;;;;4.20;4.10;;;;;;;28.04;38.37;97590.66;5299174;27;20006;-62
2024/04/13 09:58:15;;;;;;;4.30;4.20;;;;;;;28.13;38.09;97579.28;5298622;26;20017;-61
2024/04/13 10:00:44;;;;;;;3.92;3.83;;;;;;;27.44;38.90;97538.28;5299325;26;20390;-63
2024/04/13 10:03:11;;;;;;;3.92;3.83;;;;;;;27.81;38.76;97591.22;5298827;26;20011;-64
2024/04/13 10:05:38;;;;;;;3.95;3.85;;;;;;;27.71;39.03;97586.78;5299105;26;19998;-61
2024/04/13 10:08:09;;;;;;;3.67;3.58;;;;;;;26.93;39.82;97591.19;5298895;26;20009;-61
2024/04/13 10:10:42;;;;;;;4.03;3.92;;;;;;;27.24;39.49;97589.13;5296090;26;20006;-61
2024/04/13 10:13:10;;;;;;;3.70;3.60;;;;;;;26.85;38.98;97589.88;5298126;26;20066;-61
2024/04/13 10:15:38;;;;;;;3.80;3.70;;;;;;;26.73;39.71;97585.03;5302039;26;20554;-61
2024/04/13 10:18:05;;;;;;;3.63;3.53;;;;;;;27.09;39.11;97590.97;5297399;27;20010;-62
2024/04/13 10:20:37;;;;;;;3.45;3.35;;;;;;;27.57;37.72;97578.81;5281634;27;20001;-63
2024/04/13 10:23:10;;;;;;;3.85;3.75;;;;;;;28.02;37.48;97578.97;5302427;26;20021;-61
2024/04/13 10:25:37;;;;;;;3.88;3.78;;;;;;;28.18;37.16;97584.31;5302516;26;20020;-62
2024/04/13 10:28:04;;;;;;;3.60;3.50;;;;;;;27.68;37.15;97582.03;5301205;27;20027;-62
2024/04/13 10:30:52;;;;;;;4.15;4.05;;;;;;;27.35;38.40;97591.56;5302519;26;20457;-61
2024/04/13 10:33:21;;;;;;;3.50;3.40;;;;;;;26.90;38.78;97585.63;5300601;27;20002;-61
2024/04/13 10:35:52;;;;;;;3.80;3.70;;;;;;;26.98;37.92;97533.69;5301728;26;20010;-62
2024/04/13 10:38:19;;;;;;;3.50;3.40;;;;;;;26.55;38.78;97579.22;5302053;26;20038;-62
2024/04/13 10:40:46;;;;;;;3.65;3.55;;;;;;;26.85;38.54;97584.19;5301748;26;20032;-61
2024/04/13 10:43:17;;;;;;;3.38;3.28;;;;;;;27.02;38.21;97577.00;5301914;27;20012;-62
2024/04/13 10:46:00;;;;;;;3.63;3.53;;;;;;;27.05;37.75;97573.22;5301018;27;20002;-61
2024/04/13 10:48:29;;;;;;;3.65;3.55;;;;;;;27.34;37.51;97573.72;5301724;26;20045;-62
2024/04/13 10:50:57;;;;;;;3.78;3.67;;;;;;;27.16;38.31;97578.50;5300135;27;20010;-61
2024/04/13 10:53:27;;;;;;;3.63;3.53;;;;;;;26.94;37.95;97578.53;5299532;27;20465;-61
2024/04/13 10:55:57;;;;;;;3.45;3.35;;;;;;;26.22;38.85;97589.38;5301541;26;20012;-61
2024/04/13 10:58:29;;;;;;;3.60;3.50;;;;;;;25.52;39.82;97575.59;5301600;26;20001;-62
2024/04/13 11:00:57;;;;;;;3.38;3.28;;;;;;;25.96;39.61;97576.47;5301436;26;20006;-62
2024/04/13 11:03:24;;;;;;;3.67;3.58;;;;;;;26.22;38.21;97583.69;5300461;27;20021;-63
2024/04/13 11:05:51;;;;;;;3.50;3.40;;;;;;;26.27;38.58;97574.59;5300095;27;20016;-62
2024/04/13 11:08:19;;;;;;;3.40;3.30;;;;;;;26.36;38.19;97583.19;5302243;26;20012;-61
2024/04/13 11:10:51;;;;;;;3.55;3.45;;;;;;;26.45;37.95;97569.84;5301984;26;20012;-62
2024/04/13 11:13:18;;;;;;;3.50;3.40;;;;;;;26.84;37.90;97578.97;5300574;27;20009;-61
2024/04/13 11:15:45;;;;;;;3.67;3.58;;;;;;;26.78;36.76;97573.06;5300334;27;20037;-62
2024/04/13 11:18:13;;;;;;;3.90;3.80;;;;;;;26.58;37.85;97584.78;5301057;26;20017;-64
2024/04/13 11:20:42;;;;;;;3.25;3.15;;;;;;;26.37;36.56;97579.06;5301046;26;20532;-63
2024/04/13 11:23:09;;;;;;;3.40;3.30;;;;;;;25.92;37.27;97575.81;5301266;26;20005;-63
2024/04/13 11:25:36;;;;;;;3.50;3.40;;;;;;;25.74;36.96;97535.91;5299650;26;20037;-62
2024/04/13 11:28:04;;;;;;;3.78;3.67;;;;;;;25.87;36.87;97584.94;5299938;27;20042;-62
2024/04/13 11:30:31;;;;;;;3.45;3.35;;;;;;;25.71;37.04;97582.22;5301031;26;20524;-61
2024/04/13 11:33:01;;;;;;;3.63;3.53;;;;;;;25.88;37.21;97575.16;5299456;27;20388;-62
2024/04/13 11:35:28;;;;;;;3.20;3.10;;;;;;;26.13;35.60;97563.75;5301384;26;20013;-62
2024/04/13 11:37:59;;;;;;;3.50;3.40;;;;;;;26.44;35.95;97573.13;5302040;26;20016;-64